Triathlon Gravelines 2021

Epreuve sélectionnée:


M - Résultats Scratch

Filtre:

Partants Général Top 5



Recherche:

N° dossard
Nom
Club
M - Classement arrivée
Clt Athlète Nat. Club Temps Sexe Cat Nat Vélo CaP Split1 Split2 Split3
1 611 GALLET Mathieu AUTUN TRIATHLON 01:59:43 M (1e) Senior (1e) 00:21:17 (6e) 00:00:00 (0) 00:36:02 (1e) 00:21:17 (6e) 00:52:04 (5e) 01:41:12 (2e) Partagez votre performance
2 563 LAMY Hugo 02:00:07 M (2e) Senior (2e) 00:19:13 (3e) 00:00:00 (0) 00:38:24 (4e) 00:19:13 (3e) 00:50:51 (4e) 01:41:01 (1e) Partagez votre performance
3 103 GILLODTS Thomas LES TRITONS MELDOIS 02:01:35 M (3e) Senior (3e) 00:18:41 (2e) 00:00:00 (0) 00:38:29 (5e) 00:18:41 (2e) 00:50:12 (3e) 01:42:07 (3e) Partagez votre performance
4 134 GILLODTS Guillaume TRIATHLON LITTORAL 59 02:03:23 M (4e) Master (1e) 00:21:17 (5e) 00:00:00 (0) 00:39:39 (9e) 00:21:17 (5e) 00:52:05 (6e) 01:43:31 (4e) Partagez votre performance
5 380 MESNIER Nicolas 02:04:31 M (5e) Senior (4e) 00:23:47 (34e) 00:00:00 (0) 00:36:23 (2e) 00:23:47 (34e) 00:56:04 (10e) 01:46:24 (6e) Partagez votre performance
6 691 CARPENTIER Antoine LILLE TRIATHLON 02:07:58 M (6e) Senior (5e) 00:19:59 (4e) 00:00:00 (0) 00:42:57 (23e) 00:19:59 (4e) 00:52:50 (7e) 01:46:12 (5e) Partagez votre performance
7 537 DEWANCKELE Matthieu BEAUVAIS TRIATHLON 02:09:29 M (7e) Master (2e) 00:22:45 (14e) 00:00:00 (0) 00:39:38 (8e) 00:22:45 (14e) 00:56:16 (14e) 01:49:26 (7e) Partagez votre performance
8 558 THESSE David COTE D OPALE TRIATHLON CALAIS SAINT OMER 02:10:05 M (8e) Master (3e) 00:27:49 (101e) 00:00:00 (0) 00:37:57 (3e) 00:27:49 (101e) 00:59:41 (38e) 01:51:07 (15e) Partagez votre performance
9 759 MARIN Nicolas VALENCIENNES TRIATHLON 02:10:25 M (9e) Senior (6e) 00:22:48 (16e) 00:00:00 (0) 00:40:34 (12e) 00:22:48 (16e) 00:56:13 (11e) 01:49:38 (8e) Partagez votre performance
10 502 DUYME Tom 02:11:33 M (10e) Senior (7e) 00:27:51 (102e) 00:00:00 (0) 00:41:32 (16e) 00:27:51 (102e) 00:58:53 (28e) 01:50:28 (9e) Partagez votre performance
11 315 LAPORTE Baptiste 02:11:38 M (11e) Senior (8e) 00:23:16 (21e) 00:00:00 (0) 00:40:08 (10e) 00:23:16 (21e) 00:57:12 (19e) 01:51:18 (16e) Partagez votre performance
12 599 MEUNIER Vincent SKWAL ATHLON 02:11:54 M (12e) Senior (9e) 00:22:45 (13e) 00:00:00 (0) 00:41:57 (18e) 00:22:45 (13e) 00:56:22 (15e) 01:51:00 (12e) Partagez votre performance
13 633 DESCAMPS Pascal TRIATHLON LITTORAL 59 02:12:19 M (13e) Master (4e) 00:23:34 (28e) 00:00:00 (0) 00:42:17 (20e) 00:23:34 (28e) 00:56:28 (16e) 01:50:45 (10e) Partagez votre performance
14 672 DARON Victor TRIATHLON CLUB DE LIEVIN 02:12:35 M (14e) Senior (10e) 00:25:38 (54e) 00:00:00 (0) 00:40:14 (11e) 00:25:38 (54e) 00:58:50 (27e) 01:52:38 (17e) Partagez votre performance
15 560 TALEUX Jean-baptiste MULTISPORTS ACADEMY 02:12:50 M (15e) Senior (11e) 00:26:20 (73e) 00:00:00 (0) 00:43:48 (28e) 00:26:20 (73e) 00:57:22 (20e) 01:51:05 (13e) Partagez votre performance
16 788 TIBERGHIEN Antoine LYS CALAIS TRIATHLON 02:13:28 M (16e) Master (5e) 00:23:43 (32e) 00:00:00 (0) 00:44:23 (35e) 00:23:43 (32e) 00:55:45 (9e) 01:50:55 (11e) Partagez votre performance
17 647 DEMANGE Florent 02:14:50 M (17e) Senior (12e) 00:25:13 (40e) 00:00:00 (0) 00:41:22 (15e) 00:25:13 (40e) 00:59:14 (30e) 01:53:56 (23e) Partagez votre performance
18 542 BOURLET Mathieu BEAUVAIS TRIATHLON 02:15:11 M (18e) Senior (13e) 00:22:06 (9e) 00:00:00 (0) 00:39:11 (7e) 00:22:06 (9e) 01:03:29 (83e) 01:55:17 (25e) Partagez votre performance
19 295 DUMORTIER Jérôme C.C.WAVRIN 02:15:29 M (19e) Master (6e) 00:25:26 (49e) 00:00:00 (0) 00:43:55 (30e) 00:25:26 (49e) 00:58:08 (25e) 01:53:14 (19e) Partagez votre performance
20 590 VIOLLAND Nicolas RACING CLUB ARRAS TRIATHLON 02:16:06 M (20e) Master (7e) 00:23:22 (24e) 00:00:00 (0) 00:48:24 (76e) 00:23:22 (24e) 00:55:19 (8e) 01:51:05 (14e) Partagez votre performance
21 244 RIVENET Baptiste BLANC NEZ TRIATHLON 62 02:16:24 M (21e) Master (8e) 00:22:47 (15e) 00:00:00 (0) 00:45:05 (42e) 00:22:47 (15e) 00:56:15 (12e) 01:53:14 (20e) Partagez votre performance
22 159 BERTIN Thomas LYS CALAIS TRIATHLON 02:16:25 M (22e) Senior (14e) 00:22:49 (17e) 00:00:00 (0) 00:45:10 (45e) 00:22:49 (17e) 00:56:15 (13e) 01:53:06 (18e) Partagez votre performance
23 137 LUQUET Goulven VILLENEUVE D ASCQ TRIATHLON 02:16:41 M (23e) Master (9e) 00:27:45 (98e) 00:00:00 (0) 00:41:38 (17e) 00:27:45 (98e) 01:01:27 (56e) 01:55:54 (29e) Partagez votre performance
24 101 VARLET Simon RONCQ TRIATHLON 02:16:57 M (24e) Senior (15e) 00:26:20 (75e) 00:00:00 (0) 00:43:43 (26e) 00:26:20 (75e) 00:59:36 (36e) 01:55:00 (24e) Partagez votre performance
25 552 MEKIL Aurelien 02:17:07 M (25e) Senior (16e) 00:25:03 (38e) 00:00:00 (0) 00:42:01 (19e) 00:25:03 (38e) 00:59:58 (40e) 01:56:15 (31e) Partagez votre performance
26 641 POUPART Pierre 02:17:40 M (26e) Senior (17e) 00:28:16 (121e) 00:00:00 (0) 00:44:10 (33e) 00:28:16 (121e) 01:00:32 (44e) 01:55:28 (26e) Partagez votre performance
27 581 CARPENTIER Rémy TRIATHLON LITTORAL 59 02:17:50 M (27e) Senior (18e) 00:25:37 (53e) 00:00:00 (0) 00:41:03 (13e) 00:25:37 (53e) 01:01:39 (62e) 01:57:20 (37e) Partagez votre performance
28 181 DESOEUVRE Damien TRIATHLON CLUB DES WEPPES 02:17:54 M (28e) Senior (19e) 00:23:51 (35e) 00:00:00 (0) 00:42:35 (21e) 00:23:51 (35e) 00:59:34 (34e) 01:56:09 (30e) Partagez votre performance
29 580 DESAILLY Geoffrey TRIATHLON CLUB DE LIEVIN 02:18:04 M (29e) Senior (20e) 00:27:17 (88e) 00:00:00 (0) 00:44:53 (41e) 00:27:17 (88e) 00:59:51 (39e) 01:55:29 (27e) Partagez votre performance
30 587 VANHOUTTE Adrien TRIATHLON LITTORAL 59 02:18:16 M (30e) Senior (21e) 00:24:45 (37e) 00:00:00 (0) 00:46:49 (58e) 00:24:45 (37e) 00:58:05 (23e) 01:53:19 (21e) Partagez votre performance
31 156 CARRIER Olivier TRI TRAIL AND RUN QUEND 02:18:17 M (31e) Master (10e) 00:25:23 (48e) 00:00:00 (0) 00:47:11 (62e) 00:25:23 (48e) 00:58:06 (24e) 01:53:41 (22e) Partagez votre performance
32 528 LIBERT Thibault VILLENEUVE D ASCQ TRIATHLON 02:18:17 M (32e) Senior (22e) 00:25:54 (62e) 00:00:00 (0) 00:43:03 (24e) 00:25:54 (62e) 01:00:48 (45e) 01:56:17 (32e) Partagez votre performance
33 221 BONTE Simon TRIATHLON LITTORAL 59 02:18:55 M (33e) Senior (23e) 00:26:35 (79e) 00:00:00 (0) 00:43:50 (29e) 00:26:35 (79e) 01:01:15 (54e) 01:55:35 (28e) Partagez votre performance
34 430 MOULIN Nicolas VALENCIENNES TRIATHLON 02:19:08 M (34e) Master (11e) 00:25:56 (64e) 00:00:00 (0) 00:43:45 (27e) 00:25:56 (64e) 01:00:59 (52e) 01:57:06 (34e) Partagez votre performance
35 771 MILAN François 02:19:29 M (35e) Master (12e) 00:25:56 (63e) 00:00:00 (0) 00:45:49 (52e) 00:25:56 (63e) 00:59:29 (33e) 01:57:08 (35e) Partagez votre performance
36 575 LOUVET Lucas 02:19:31 M (36e) Senior (24e) 00:21:50 (7e) 00:00:00 (0) 00:47:35 (66e) 00:21:50 (7e) 00:57:10 (18e) 01:56:35 (33e) Partagez votre performance
37 620 PASTANT Pierre HALLUIN TRIATHLON 02:20:26 M (37e) Senior (25e) 00:27:17 (89e) 00:00:00 (0) 00:45:35 (49e) 00:27:17 (89e) 01:01:44 (65e) 01:57:59 (39e) Partagez votre performance
38 637 VASELLI Sébastien POIX TRIATHLON 02:21:02 M (38e) Master (13e) 00:28:11 (117e) 00:00:00 (0) 00:44:42 (39e) 00:28:11 (117e) 01:02:27 (73e) 01:58:40 (45e) Partagez votre performance
39 501 THERY Vincent SKWAL ATHLON 02:21:13 M (39e) Master (14e) 00:23:15 (20e) 00:00:00 (0) 00:48:12 (75e) 00:23:15 (20e) 00:58:12 (26e) 01:57:09 (36e) Partagez votre performance
40 146 SABBE Stéphane RONCQ TRIATHLON 02:21:24 M (40e) Master (15e) 00:25:10 (39e) 00:00:00 (0) 00:45:21 (48e) 00:25:10 (39e) 01:00:59 (51e) 01:58:21 (41e) Partagez votre performance
41 195 LEDOUX Christophe 02:21:27 M (41e) Master (16e) 00:31:34 (191e) 00:00:00 (0) 00:38:58 (6e) 00:31:34 (191e) 01:06:27 (122e) 02:01:20 (61e) Partagez votre performance
42 344 POCHOLLE Thierry TEAM GOFAST ARMENTIERES TRIATHLON 02:21:32 M (42e) Master (17e) 00:27:03 (86e) 00:00:00 (0) 00:44:31 (38e) 00:27:03 (86e) 01:02:18 (71e) 01:58:36 (44e) Partagez votre performance
43 693 BOURDON Ludovic PHENIX TEAM 02:22:06 M (43e) Master (18e) 00:27:56 (106e) 00:00:00 (0) 00:46:14 (54e) 00:27:56 (106e) 01:02:00 (66e) 01:58:23 (42e) Partagez votre performance
44 531 DELEPINE Sébastien TRIATHLON CLUB DU MONTREUILLOIS 02:22:13 M (44e) Master (19e) 00:23:37 (29e) 00:00:00 (0) 00:45:17 (47e) 00:23:37 (29e) 01:00:29 (43e) 01:59:26 (48e) Partagez votre performance
45 122 DÉPLANQUE Rémi 02:22:38 M (45e) Senior (26e) 00:25:44 (55e) 00:00:00 (0) 00:46:56 (59e) 00:25:44 (55e) 01:00:53 (49e) 01:58:10 (40e) Partagez votre performance
46 545 MOREL Sebastien TRIATHLON CLUB D`HAZEBROUCK 02:22:59 M (46e) Master (20e) 00:23:31 (27e) 00:00:00 (0) 00:50:16 (100e) 00:23:31 (27e) 00:57:29 (21e) 01:57:25 (38e) Partagez votre performance
47 543 BRULEZ Thomas RONCQ TRIATHLON 02:23:12 M (47e) Master (21e) 00:27:03 (85e) 00:00:00 (0) 00:48:30 (78e) 00:27:03 (85e) 01:01:16 (55e) 01:58:35 (43e) Partagez votre performance
48 491 LEBRUN Louis VILLENEUVE D ASCQ TRIATHLON 02:23:16 M (48e) Senior (27e)